createdAt,value
2018-03-26T00:01:12.181Z,15.93
2018-03-26T00:03:39.397Z,15.93
2018-03-26T00:06:05.873Z,15.93
2018-03-26T00:08:32.338Z,15.94
2018-03-26T00:10:58.851Z,15.93
2018-03-26T00:13:25.317Z,15.93
2018-03-26T00:15:51.807Z,15.93
2018-03-26T00:18:18.263Z,15.93
2018-03-26T00:20:44.758Z,15.93
2018-03-26T00:23:11.994Z,15.93
2018-03-26T00:25:38.443Z,15.93
2018-03-26T00:28:04.940Z,15.93
2018-03-26T00:30:31.406Z,15.94
2018-03-26T00:32:58.654Z,15.94
2018-03-26T00:35:25.122Z,15.93
2018-03-26T00:37:51.608Z,15.94
2018-03-26T00:40:18.838Z,15.94
2018-03-26T00:42:45.323Z,15.94
2018-03-26T00:45:11.780Z,15.93
2018-03-26T00:47:38.283Z,15.94
2018-03-26T00:50:04.743Z,15.94
2018-03-26T00:52:31.243Z,15.93
2018-03-26T00:54:57.713Z,15.93
2018-03-26T00:57:24.200Z,15.93
2018-03-26T00:59:51.451Z,15.94
2018-03-26T01:02:17.922Z,15.94
2018-03-26T01:04:45.157Z,15.93
2018-03-26T01:07:11.634Z,15.94
2018-03-26T01:09:38.110Z,15.93
2018-03-26T01:12:04.587Z,15.93
2018-03-26T01:14:31.825Z,15.94
2018-03-26T01:16:58.311Z,15.93
2018-03-26T01:19:25.577Z,15.93
2018-03-26T01:21:52.830Z,15.94
2018-03-26T01:24:19.319Z,15.93
2018-03-26T01:26:46.557Z,15.93
2018-03-26T01:29:13.050Z,15.94
2018-03-26T01:31:40.287Z,15.94
2018-03-26T01:34:06.780Z,15.95
2018-03-26T01:36:33.232Z,15.94
2018-03-26T01:38:59.681Z,15.95
2018-03-26T01:41:26.181Z,15.94
2018-03-26T01:43:52.638Z,15.95
2018-03-26T01:46:19.144Z,15.94
2018-03-26T01:48:45.617Z,15.95
2018-03-26T01:51:12.101Z,15.95
2018-03-26T01:53:39.324Z,15.94
2018-03-26T01:56:05.775Z,15.94
2018-03-26T01:58:32.255Z,15.94
2018-03-26T02:00:58.728Z,15.94
2018-03-26T02:03:25.225Z,15.94
2018-03-26T02:05:51.685Z,15.94
2018-03-26T02:08:18.178Z,15.93
2018-03-26T02:10:44.624Z,15.94
2018-03-26T02:13:11.111Z,15.94
2018-03-26T02:15:37.596Z,15.94
2018-03-26T02:18:04.844Z,15.94
2018-03-26T02:20:31.336Z,15.94
2018-03-26T02:22:58.562Z,15.93
2018-03-26T02:25:25.048Z,15.94
2018-03-26T02:27:51.510Z,15.94
2018-03-26T02:30:18.800Z,15.94
2018-03-26T02:32:46.027Z,15.94
2018-03-26T02:35:12.474Z,15.94
2018-03-26T02:37:38.977Z,15.94
2018-03-26T02:40:05.452Z,15.95
2018-03-26T02:42:32.702Z,15.94
2018-03-26T02:44:59.165Z,15.94
2018-03-26T02:47:25.642Z,15.94
2018-03-26T02:49:52.892Z,15.94
2018-03-26T02:52:19.343Z,15.94
2018-03-26T02:54:45.844Z,15.94
2018-03-26T02:57:12.339Z,15.94
2018-03-26T02:59:38.801Z,15.95
2018-03-26T03:02:05.314Z,15.94
2018-03-26T03:04:32.535Z,15.94
2018-03-26T03:06:59.015Z,15.95
2018-03-26T03:09:25.528Z,15.94
2018-03-26T03:11:52.760Z,15.94
2018-03-26T03:14:19.223Z,15.94
2018-03-26T03:16:45.740Z,15.95
2018-03-26T03:19:12.231Z,15.94
2018-03-26T03:21:38.694Z,15.94
2018-03-26T03:24:05.168Z,15.94
2018-03-26T03:26:32.388Z,15.94
2018-03-26T03:28:58.929Z,15.94
2018-03-26T03:31:25.377Z,15.94
2018-03-26T03:33:52.605Z,15.94
2018-03-26T03:36:19.094Z,15.95
2018-03-26T03:38:46.337Z,15.94
2018-03-26T03:41:12.846Z,15.95
2018-03-26T03:43:39.302Z,15.95
2018-03-26T03:46:05.785Z,15.94
2018-03-26T03:48:32.276Z,15.95
2018-03-26T03:50:58.734Z,15.94
2018-03-26T03:53:25.241Z,15.94
2018-03-26T03:55:51.703Z,15.95
2018-03-26T03:58:18.205Z,15.95
2018-03-26T04:00:44.653Z,15.94
2018-03-26T04:03:11.100Z,15.95
2018-03-26T04:05:37.590Z,15.95
2018-03-26T04:08:04.051Z,15.94
2018-03-26T04:10:30.527Z,15.95
2018-03-26T04:12:56.990Z,15.95
2018-03-26T04:15:23.498Z,15.94
2018-03-26T04:17:49.971Z,15.94
2018-03-26T04:20:16.440Z,15.95
2018-03-26T04:22:42.939Z,15.95
2018-03-26T04:25:10.166Z,15.95
2018-03-26T04:27:36.650Z,15.95
2018-03-26T04:30:03.124Z,15.96
2018-03-26T04:32:30.382Z,15.96
2018-03-26T04:34:56.859Z,15.96
2018-03-26T04:37:24.100Z,15.96
2018-03-26T04:39:50.591Z,15.96
2018-03-26T04:42:17.851Z,15.96
2018-03-26T04:44:44.344Z,15.96
2018-03-26T04:47:11.571Z,15.96
2018-03-26T04:49:38.079Z,15.95
2018-03-26T04:52:05.307Z,15.95
2018-03-26T04:54:31.778Z,15.95
2018-03-26T04:56:58.266Z,15.95
2018-03-26T04:59:25.501Z,15.95
2018-03-26T05:01:51.984Z,15.95
2018-03-26T05:04:18.437Z,15.53
2018-03-26T05:06:44.900Z,15.39
2018-03-26T05:09:11.407Z,15.41
2018-03-26T05:11:37.904Z,15.75
2018-03-26T05:14:04.401Z,15.87
2018-03-26T05:16:31.626Z,15.90
2018-03-26T05:18:58.127Z,15.92
2018-03-26T05:21:24.596Z,15.93
2018-03-26T05:23:51.840Z,15.92
2018-03-26T05:26:18.294Z,15.93
2018-03-26T05:28:44.758Z,15.93
2018-03-26T05:31:11.232Z,15.93
2018-03-26T05:33:38.453Z,15.93
2018-03-26T05:36:04.942Z,15.92
2018-03-26T05:38:31.407Z,15.94
2018-03-26T05:40:57.871Z,15.93
2018-03-26T05:43:24.355Z,15.94
2018-03-26T05:45:51.576Z,15.94
2018-03-26T05:48:18.062Z,15.94
2018-03-26T05:50:44.531Z,15.94
2018-03-26T05:53:11.016Z,15.93
2018-03-26T05:55:37.517Z,15.94
2018-03-26T05:58:03.982Z,15.93
2018-03-26T06:00:30.474Z,15.93
2018-03-26T06:02:57.705Z,15.64
2018-03-26T06:05:24.182Z,15.49
2018-03-26T06:07:50.995Z,15.44
2018-03-26T06:10:17.467Z,15.42
2018-03-26T06:12:43.974Z,15.39
2018-03-26T06:15:10.455Z,15.43
2018-03-26T06:17:37.720Z,15.64
2018-03-26T06:20:04.183Z,15.78
2018-03-26T06:22:31.407Z,15.83
2018-03-26T06:24:57.939Z,15.86
2018-03-26T06:27:25.146Z,15.88
2018-03-26T06:29:51.613Z,15.88
2018-03-26T06:32:18.069Z,15.88
2018-03-26T06:34:44.577Z,15.88
2018-03-26T06:37:11.808Z,15.90
2018-03-26T06:39:38.266Z,15.89
2018-03-26T06:42:04.747Z,15.89
2018-03-26T06:44:31.223Z,15.89
2018-03-26T06:46:58.478Z,15.85
2018-03-26T06:49:24.963Z,15.53
2018-03-26T06:51:52.235Z,15.63
2018-03-26T06:54:19.492Z,15.76
2018-03-26T06:56:45.989Z,15.82
2018-03-26T06:59:13.244Z,15.83
2018-03-26T07:01:40.508Z,15.81
2018-03-26T07:04:07.016Z,15.83
2018-03-26T07:06:33.471Z,15.83
2018-03-26T07:08:59.941Z,15.84
2018-03-26T07:11:26.447Z,15.86
2018-03-26T07:13:52.909Z,15.85
2018-03-26T07:16:19.431Z,15.85
2018-03-26T07:18:45.901Z,15.87
2018-03-26T07:21:12.350Z,15.87
2018-03-26T07:23:38.855Z,15.86
2018-03-26T07:26:06.086Z,15.86
2018-03-26T07:28:32.569Z,15.87
2018-03-26T07:30:59.031Z,15.86
2018-03-26T07:33:25.503Z,15.87
2018-03-26T07:35:52.754Z,15.86
2018-03-26T07:38:19.238Z,15.86
2018-03-26T07:40:46.511Z,15.86
2018-03-26T07:43:13.758Z,15.87
2018-03-26T07:45:40.207Z,15.87
2018-03-26T07:48:06.696Z,15.87
2018-03-26T07:50:33.158Z,15.87
2018-03-26T07:52:59.628Z,15.87
2018-03-26T07:55:26.881Z,15.87
2018-03-26T07:57:53.387Z,15.87
2018-03-26T08:00:19.847Z,15.88
2018-03-26T08:02:46.300Z,15.88
2018-03-26T08:05:12.787Z,15.87
2018-03-26T08:07:39.263Z,15.87
2018-03-26T08:10:05.741Z,15.86
2018-03-26T08:12:32.991Z,15.87
2018-03-26T08:14:59.464Z,15.87
2018-03-26T08:17:25.932Z,15.87
2018-03-26T08:19:52.413Z,15.87
2018-03-26T08:22:18.921Z,15.88
2018-03-26T08:24:45.395Z,15.88
2018-03-26T08:27:11.866Z,15.88
2018-03-26T08:29:38.346Z,15.88
2018-03-26T08:32:04.822Z,15.88
2018-03-26T08:34:31.319Z,15.88
2018-03-26T08:36:57.769Z,15.87
2018-03-26T08:39:24.241Z,15.88
2018-03-26T08:41:50.740Z,15.88
2018-03-26T08:44:17.186Z,15.88
2018-03-26T08:46:44.469Z,15.88
2018-03-26T08:49:11.718Z,15.88
2018-03-26T08:51:38.171Z,15.89
2018-03-26T08:54:04.661Z,15.89
2018-03-26T08:56:31.917Z,15.89
2018-03-26T08:58:58.400Z,15.88
2018-03-26T09:01:25.638Z,15.88
2018-03-26T09:03:52.102Z,15.89
2018-03-26T09:06:18.619Z,15.88
2018-03-26T09:08:45.086Z,15.88
2018-03-26T09:11:11.575Z,15.88
2018-03-26T09:13:38.053Z,15.88
2018-03-26T09:16:04.510Z,15.88
2018-03-26T09:18:31.006Z,15.87
2018-03-26T09:20:57.458Z,15.88
2018-03-26T09:23:23.961Z,15.88
2018-03-26T09:25:50.428Z,15.88
2018-03-26T09:28:16.890Z,15.54
2018-03-26T09:30:43.375Z,15.71
2018-03-26T09:33:10.604Z,15.82
2018-03-26T09:35:37.125Z,15.85
2018-03-26T09:38:03.607Z,15.86
2018-03-26T09:40:30.126Z,15.87
2018-03-26T09:42:56.612Z,15.87
2018-03-26T09:45:23.076Z,15.87
2018-03-26T09:47:49.553Z,15.88
2018-03-26T09:50:16.049Z,15.88
2018-03-26T09:52:43.332Z,15.88
2018-03-26T09:55:10.576Z,15.88
2018-03-26T09:57:37.025Z,15.89
2018-03-26T10:00:04.503Z,15.88
2018-03-26T10:02:30.966Z,15.88
2018-03-26T10:04:57.550Z,15.88
2018-03-26T10:07:24.008Z,15.85
2018-03-26T10:09:50.463Z,15.87
2018-03-26T10:12:16.935Z,15.86
2018-03-26T10:14:44.182Z,15.85
2018-03-26T10:17:10.679Z,15.87
2018-03-26T10:19:37.917Z,15.87
2018-03-26T10:22:04.382Z,15.86
2018-03-26T10:24:30.848Z,15.87
2018-03-26T10:26:57.314Z,15.87
2018-03-26T10:29:23.816Z,15.87
2018-03-26T10:31:50.289Z,15.87
2018-03-26T10:34:16.747Z,15.87
2018-03-26T10:36:43.245Z,15.88
2018-03-26T10:39:10.469Z,15.88
2018-03-26T10:41:36.948Z,15.88
2018-03-26T10:44:03.400Z,15.88
2018-03-26T10:46:29.870Z,15.87
2018-03-26T10:48:56.360Z,15.88
2018-03-26T10:51:22.806Z,15.88
2018-03-26T10:53:49.319Z,15.89
2018-03-26T10:56:15.778Z,15.88
2018-03-26T10:58:42.243Z,15.89
2018-03-26T11:01:08.741Z,15.89
2018-03-26T11:03:35.192Z,15.56
2018-03-26T11:06:01.677Z,15.49
2018-03-26T11:08:28.911Z,15.52
2018-03-26T11:10:55.362Z,15.48
2018-03-26T11:13:21.851Z,15.53
2018-03-26T11:15:48.301Z,15.49
2018-03-26T11:18:14.804Z,15.46
2018-03-26T11:20:41.279Z,15.63
2018-03-26T11:23:07.756Z,15.74
2018-03-26T11:25:34.233Z,15.78
2018-03-26T11:28:00.710Z,15.81
2018-03-26T11:30:27.253Z,15.82
2018-03-26T11:32:53.712Z,15.83
2018-03-26T11:35:20.189Z,15.84
2018-03-26T11:37:46.700Z,15.84
2018-03-26T11:40:13.163Z,15.85
2018-03-26T11:42:39.669Z,15.84
2018-03-26T11:45:06.141Z,15.83
2018-03-26T11:47:33.368Z,15.84
2018-03-26T11:49:59.865Z,15.84
2018-03-26T11:52:26.324Z,15.84
2018-03-26T11:54:52.819Z,15.84
2018-03-26T11:57:19.294Z,15.85
2018-03-26T11:59:45.760Z,15.86
2018-03-26T12:02:12.301Z,15.87
2018-03-26T12:04:38.751Z,15.85
2018-03-26T12:07:05.241Z,15.85
2018-03-26T12:09:31.693Z,15.86
2018-03-26T12:11:58.200Z,15.85
2018-03-26T12:14:25.434Z,15.85
2018-03-26T12:16:51.895Z,15.85
2018-03-26T12:19:18.388Z,15.85
2018-03-26T12:21:44.851Z,15.87
2018-03-26T12:24:12.121Z,15.85
2018-03-26T12:26:38.579Z,15.87
2018-03-26T12:29:05.043Z,15.87
2018-03-26T12:31:32.309Z,15.83
2018-03-26T12:33:58.764Z,15.85
2018-03-26T12:36:25.252Z,15.85
2018-03-26T12:38:52.507Z,15.86
2018-03-26T12:41:19.005Z,15.87
2018-03-26T12:43:45.742Z,15.87
2018-03-26T12:46:13.001Z,15.87
2018-03-26T12:48:39.465Z,15.87
2018-03-26T12:51:05.962Z,15.88
2018-03-26T12:53:32.420Z,15.87
2018-03-26T12:55:58.924Z,15.88
2018-03-26T12:58:25.394Z,15.87
2018-03-26T13:00:51.870Z,15.88
2018-03-26T13:03:19.105Z,15.88
2018-03-26T13:05:45.638Z,15.87
2018-03-26T13:08:12.120Z,15.88
2018-03-26T13:10:38.589Z,15.88
2018-03-26T13:13:05.038Z,15.89
2018-03-26T13:15:31.489Z,15.88
2018-03-26T13:17:57.956Z,15.89
2018-03-26T13:20:24.420Z,15.88
2018-03-26T13:22:50.913Z,15.88
2018-03-26T13:25:18.150Z,15.88
2018-03-26T13:27:44.591Z,15.89
2018-03-26T13:30:11.040Z,15.88
2018-03-26T13:32:37.534Z,15.89
2018-03-26T13:35:04.018Z,15.71
2018-03-26T13:37:31.260Z,15.80
2018-03-26T13:39:57.727Z,15.84
2018-03-26T13:42:24.205Z,15.85
2018-03-26T13:44:51.417Z,15.86
2018-03-26T13:47:17.902Z,15.86
2018-03-26T13:49:44.461Z,15.85
2018-03-26T13:52:10.927Z,15.86
2018-03-26T13:54:37.392Z,15.87
2018-03-26T13:57:03.851Z,15.86
2018-03-26T13:59:30.330Z,15.86
2018-03-26T14:01:56.799Z,15.85
2018-03-26T14:04:24.028Z,15.85
2018-03-26T14:06:50.494Z,15.85
2018-03-26T14:09:16.968Z,15.86
2018-03-26T14:11:43.444Z,15.86
2018-03-26T14:14:09.907Z,15.85
2018-03-26T14:16:36.433Z,15.86
2018-03-26T14:19:02.928Z,15.86
2018-03-26T14:21:30.166Z,15.86
2018-03-26T14:23:56.650Z,15.85
2018-03-26T14:26:23.145Z,15.86
2018-03-26T14:28:49.635Z,15.86
2018-03-26T14:31:16.122Z,15.86
2018-03-26T14:33:42.625Z,15.87
2018-03-26T14:36:09.109Z,15.86
2018-03-26T14:38:35.639Z,15.86
2018-03-26T14:41:02.149Z,15.87
2018-03-26T14:43:28.615Z,15.88
2018-03-26T14:45:55.083Z,15.88
2018-03-26T14:48:21.562Z,15.73
2018-03-26T14:50:48.826Z,15.83
2018-03-26T14:53:16.056Z,15.85
2018-03-26T14:55:42.521Z,15.85
2018-03-26T14:58:09.016Z,15.85
2018-03-26T15:00:35.516Z,15.86
2018-03-26T15:03:01.996Z,15.86
2018-03-26T15:05:28.449Z,15.88
2018-03-26T15:07:54.925Z,15.87
2018-03-26T15:10:21.409Z,15.87
2018-03-26T15:12:47.911Z,15.87
2018-03-26T15:15:14.387Z,15.75
2018-03-26T15:17:41.549Z,15.81
2018-03-26T15:20:08.106Z,15.85
2018-03-26T15:22:34.599Z,15.85
2018-03-26T15:25:01.063Z,15.85
2018-03-26T15:27:27.642Z,15.86
2018-03-26T15:29:54.021Z,15.86
2018-03-26T15:32:20.496Z,15.86
2018-03-26T15:34:47.289Z,15.80
2018-03-26T15:37:13.793Z,15.86
2018-03-26T15:39:41.249Z,15.88
2018-03-26T15:42:09.248Z,15.88
2018-03-26T15:44:35.865Z,15.89
2018-03-26T15:47:04.994Z,15.89
2018-03-26T15:49:31.965Z,15.88
2018-03-26T15:51:58.477Z,15.89
2018-03-26T15:54:25.711Z,15.89
2018-03-26T15:56:52.176Z,15.89
2018-03-26T15:59:18.713Z,15.89
2018-03-26T16:01:45.190Z,15.90
2018-03-26T16:04:11.650Z,15.90
2018-03-26T16:06:38.121Z,15.89
2018-03-26T16:09:04.602Z,15.89
2018-03-26T16:11:31.280Z,15.90
2018-03-26T16:13:57.922Z,15.90
2018-03-26T16:16:24.384Z,15.89
2018-03-26T16:18:50.978Z,15.90
2018-03-26T16:21:17.455Z,15.90
2018-03-26T16:23:43.918Z,15.90
2018-03-26T16:26:10.397Z,15.90
2018-03-26T16:28:37.064Z,15.89
2018-03-26T16:31:03.620Z,15.94
2018-03-26T16:33:30.102Z,15.93
2018-03-26T16:35:56.606Z,15.92
2018-03-26T16:38:23.096Z,15.93
2018-03-26T16:40:49.571Z,15.92
2018-03-26T16:43:16.075Z,15.91
2018-03-26T16:45:42.793Z,15.91
2018-03-26T16:48:10.404Z,15.91
2018-03-26T16:50:37.012Z,15.91
2018-03-26T16:53:03.967Z,15.91
2018-03-26T16:55:30.544Z,15.92
2018-03-26T16:57:57.135Z,15.91
2018-03-26T17:00:23.900Z,15.91
2018-03-26T17:02:50.674Z,15.92
2018-03-26T17:05:17.212Z,15.93
2018-03-26T17:07:45.054Z,15.92
2018-03-26T17:10:12.755Z,15.92
2018-03-26T17:12:39.724Z,15.92
2018-03-26T17:15:06.662Z,15.92
2018-03-26T17:17:33.731Z,15.92
2018-03-26T17:20:00.530Z,15.92
2018-03-26T17:22:27.454Z,15.92
2018-03-26T17:24:54.329Z,15.92
2018-03-26T17:27:21.155Z,15.92
2018-03-26T17:29:48.794Z,15.92
2018-03-26T17:32:16.636Z,15.92
2018-03-26T17:34:43.622Z,15.92
2018-03-26T17:37:10.806Z,15.92
2018-03-26T17:39:37.898Z,15.93
2018-03-26T17:42:04.953Z,15.92
2018-03-26T17:44:32.014Z,15.92
2018-03-26T17:46:59.082Z,15.91
2018-03-26T17:49:26.173Z,15.92
2018-03-26T17:51:53.237Z,15.92
2018-03-26T17:54:20.314Z,15.92
2018-03-26T17:56:47.267Z,15.93
2018-03-26T17:59:14.416Z,15.92
2018-03-26T18:01:41.467Z,15.92
2018-03-26T18:04:09.412Z,15.92
2018-03-26T18:06:36.530Z,15.93
2018-03-26T18:09:04.520Z,15.92
2018-03-26T18:11:33.164Z,15.93
2018-03-26T18:14:00.182Z,15.93
2018-03-26T18:16:27.383Z,15.93
2018-03-26T18:18:55.261Z,15.93
2018-03-26T18:21:22.418Z,15.93
2018-03-26T18:23:49.491Z,15.92
2018-03-26T18:26:16.563Z,15.93
2018-03-26T18:28:43.781Z,15.93
2018-03-26T18:31:10.894Z,15.93
2018-03-26T18:33:38.102Z,15.93
2018-03-26T18:36:05.169Z,15.94
2018-03-26T18:38:32.436Z,15.94
2018-03-26T18:40:59.702Z,15.93
2018-03-26T18:43:26.814Z,15.94
2018-03-26T18:45:54.762Z,15.93
2018-03-26T18:48:21.815Z,15.93
2018-03-26T18:50:49.044Z,15.93
2018-03-26T18:53:16.912Z,15.94
2018-03-26T18:55:44.042Z,15.93
2018-03-26T18:58:12.218Z,15.93
2018-03-26T19:00:40.067Z,15.93
2018-03-26T19:03:07.476Z,15.93
2018-03-26T19:05:34.572Z,15.94
2018-03-26T19:08:01.612Z,15.94
2018-03-26T19:10:28.686Z,15.95
2018-03-26T19:12:55.789Z,15.94
2018-03-26T19:15:22.889Z,15.94
2018-03-26T19:17:49.965Z,15.93
2018-03-26T19:20:17.025Z,15.94
2018-03-26T19:22:44.135Z,15.94
2018-03-26T19:25:12.223Z,15.94
2018-03-26T19:27:39.313Z,15.94
2018-03-26T19:30:06.453Z,15.95
2018-03-26T19:32:33.549Z,15.95
2018-03-26T19:35:00.618Z,15.94
2018-03-26T19:37:27.597Z,15.94
2018-03-26T19:39:54.688Z,15.95
2018-03-26T19:42:21.762Z,15.95
2018-03-26T19:44:48.808Z,15.94
2018-03-26T19:47:15.902Z,15.94
2018-03-26T19:49:42.950Z,15.95
2018-03-26T19:52:10.909Z,15.95
2018-03-26T19:54:37.991Z,15.94
2018-03-26T19:57:05.228Z,15.95
2018-03-26T19:59:32.312Z,15.95
2018-03-26T20:01:59.399Z,15.94
2018-03-26T20:04:27.649Z,15.94
2018-03-26T20:06:55.603Z,15.94
2018-03-26T20:09:22.643Z,15.94
2018-03-26T20:11:50.503Z,15.94
2018-03-26T20:14:17.585Z,15.94
2018-03-26T20:16:44.670Z,15.54
2018-03-26T20:19:12.651Z,15.55
2018-03-26T20:21:39.714Z,15.77
2018-03-26T20:24:06.816Z,15.88
2018-03-26T20:26:34.015Z,15.91
2018-03-26T20:29:01.056Z,15.92
2018-03-26T20:31:28.396Z,15.92
2018-03-26T20:33:55.472Z,15.92
2018-03-26T20:36:22.691Z,15.93
2018-03-26T20:38:50.548Z,15.93
2018-03-26T20:41:17.628Z,15.93
2018-03-26T20:43:44.863Z,15.93
2018-03-26T20:46:11.963Z,15.92
2018-03-26T20:48:39.036Z,15.93
2018-03-26T20:51:06.253Z,15.93
2018-03-26T20:53:34.119Z,15.92
2018-03-26T20:56:01.331Z,15.93
2018-03-26T20:58:29.223Z,15.93
2018-03-26T21:00:57.060Z,15.93
2018-03-26T21:03:24.337Z,15.94
2018-03-26T21:05:52.243Z,15.93
2018-03-26T21:08:19.466Z,15.93
2018-03-26T21:10:46.565Z,15.93
2018-03-26T21:13:13.784Z,15.93
2018-03-26T21:15:40.982Z,15.94
2018-03-26T21:18:08.842Z,15.93
2018-03-26T21:20:36.013Z,15.93
2018-03-26T21:23:03.079Z,15.93
2018-03-26T21:25:30.305Z,15.94
2018-03-26T21:27:57.328Z,15.94
2018-03-26T21:30:24.407Z,15.93
2018-03-26T21:32:51.661Z,15.93
2018-03-26T21:35:18.774Z,15.93
2018-03-26T21:37:45.994Z,15.93
2018-03-26T21:40:13.030Z,15.94
2018-03-26T21:42:40.972Z,15.94
2018-03-26T21:45:08.020Z,15.94
2018-03-26T21:47:35.780Z,15.94
2018-03-26T21:50:02.985Z,15.94
2018-03-26T21:52:29.937Z,15.93
2018-03-26T21:54:56.916Z,15.94
2018-03-26T21:57:24.793Z,15.94
2018-03-26T21:59:52.555Z,15.94
2018-03-26T22:02:19.578Z,15.94
2018-03-26T22:04:46.931Z,15.94
2018-03-26T22:07:13.535Z,15.94
2018-03-26T22:09:40.415Z,15.94
2018-03-26T22:12:07.061Z,15.94
2018-03-26T22:14:33.538Z,15.94
2018-03-26T22:17:00.233Z,15.94
2018-03-26T22:19:27.569Z,15.94
2018-03-26T22:21:54.060Z,15.94
2018-03-26T22:24:20.530Z,15.94
2018-03-26T22:26:47.776Z,15.94
2018-03-26T22:29:14.300Z,15.94
2018-03-26T22:31:40.799Z,15.95
2018-03-26T22:34:07.268Z,15.95
2018-03-26T22:36:33.757Z,15.95
2018-03-26T22:39:01.100Z,15.95
2018-03-26T22:41:27.580Z,15.95
2018-03-26T22:43:54.784Z,15.95
2018-03-26T22:46:21.260Z,15.94
2018-03-26T22:48:47.830Z,15.95
2018-03-26T22:51:14.296Z,15.95
2018-03-26T22:53:40.769Z,15.95
2018-03-26T22:56:07.231Z,15.94
2018-03-26T22:58:33.721Z,15.95
2018-03-26T23:01:00.246Z,15.95
2018-03-26T23:03:26.736Z,15.94
2018-03-26T23:05:54.009Z,15.94
2018-03-26T23:08:21.226Z,15.95
2018-03-26T23:10:47.963Z,15.95
2018-03-26T23:13:14.494Z,15.94
2018-03-26T23:15:40.968Z,15.95
2018-03-26T23:18:08.203Z,15.95
2018-03-26T23:20:34.661Z,15.95
2018-03-26T23:23:01.141Z,15.94
2018-03-26T23:25:28.382Z,15.95
2018-03-26T23:27:54.884Z,15.95
2018-03-26T23:30:21.348Z,15.95
2018-03-26T23:32:48.580Z,15.94
2018-03-26T23:35:15.063Z,15.95
2018-03-26T23:37:41.537Z,15.95
2018-03-26T23:40:08.031Z,15.94
2018-03-26T23:42:34.501Z,15.95
2018-03-26T23:45:00.980Z,15.95
2018-03-26T23:47:27.441Z,15.95
2018-03-26T23:49:53.903Z,15.95
2018-03-26T23:52:20.383Z,15.95
2018-03-26T23:54:46.854Z,15.96
2018-03-26T23:57:14.102Z,15.95
2018-03-26T23:59:40.696Z,15.96
